sensor_id;sensor_type;location;lat;lon;timestamp;P1;durP1;ratioP1;P2;durP2;ratioP2
29294;SDS011;16305;48.566;8.846;2022-12-29T00:01:35;5.07;;;3.07;;
29294;SDS011;16305;48.566;8.846;2022-12-29T00:04:01;4.87;;;2.90;;
29294;SDS011;16305;48.566;8.846;2022-12-29T00:06:28;6.40;;;3.03;;
29294;SDS011;16305;48.566;8.846;2022-12-29T00:08:53;4.90;;;2.73;;
29294;SDS011;16305;48.566;8.846;2022-12-29T00:11:20;5.07;;;2.73;;
29294;SDS011;16305;48.566;8.846;2022-12-29T00:13:47;4.77;;;3.07;;
29294;SDS011;16305;48.566;8.846;2022-12-29T00:16:32;4.80;;;2.53;;
29294;SDS011;16305;48.566;8.846;2022-12-29T00:18:58;6.63;;;2.97;;
29294;SDS011;16305;48.566;8.846;2022-12-29T00:21:24;2.73;;;2.47;;
29294;SDS011;16305;48.566;8.846;2022-12-29T00:24:10;3.57;;;2.43;;
29294;SDS011;16305;48.566;8.846;2022-12-29T00:29:49;4.00;;;2.47;;
29294;SDS011;16305;48.566;8.846;2022-12-29T00:32:33;3.87;;;2.70;;
29294;SDS011;16305;48.566;8.846;2022-12-29T00:35:21;4.93;;;2.67;;
29294;SDS011;16305;48.566;8.846;2022-12-29T00:38:00;5.53;;;2.40;;
29294;SDS011;16305;48.566;8.846;2022-12-29T00:40:48;3.07;;;2.20;;
29294;SDS011;16305;48.566;8.846;2022-12-29T00:43:32;2.63;;;1.90;;
29294;SDS011;16305;48.566;8.846;2022-12-29T00:46:15;3.23;;;2.03;;
29294;SDS011;16305;48.566;8.846;2022-12-29T00:48:41;3.07;;;2.10;;
29294;SDS011;16305;48.566;8.846;2022-12-29T00:51:25;3.50;;;2.10;;
29294;SDS011;16305;48.566;8.846;2022-12-29T00:53:50;4.60;;;1.70;;
29294;SDS011;16305;48.566;8.846;2022-12-29T00:56:16;3.77;;;2.00;;
29294;SDS011;16305;48.566;8.846;2022-12-29T00:58:41;3.20;;;2.27;;
29294;SDS011;16305;48.566;8.846;2022-12-29T01:01:07;3.23;;;2.20;;
29294;SDS011;16305;48.566;8.846;2022-12-29T01:03:34;5.37;;;2.37;;
29294;SDS011;16305;48.566;8.846;2022-12-29T01:06:05;2.43;;;2.00;;
29294;SDS011;16305;48.566;8.846;2022-12-29T01:08:32;3.67;;;2.00;;
29294;SDS011;16305;48.566;8.846;2022-12-29T01:11:02;3.93;;;1.93;;
29294;SDS011;16305;48.566;8.846;2022-12-29T01:13:30;3.27;;;2.07;;
29294;SDS011;16305;48.566;8.846;2022-12-29T01:15:56;3.33;;;2.07;;
29294;SDS011;16305;48.566;8.846;2022-12-29T01:18:21;3.30;;;2.07;;
29294;SDS011;16305;48.566;8.846;2022-12-29T01:20:48;4.67;;;2.00;;
29294;SDS011;16305;48.566;8.846;2022-12-29T01:23:13;2.40;;;2.00;;
29294;SDS011;16305;48.566;8.846;2022-12-29T01:25:39;3.80;;;1.80;;
29294;SDS011;16305;48.566;8.846;2022-12-29T01:28:04;3.20;;;1.90;;
29294;SDS011;16305;48.566;8.846;2022-12-29T01:30:32;5.53;;;2.00;;
29294;SDS011;16305;48.566;8.846;2022-12-29T01:32:57;2.83;;;1.60;;
29294;SDS011;16305;48.566;8.846;2022-12-29T01:35:23;5.60;;;2.00;;
29294;SDS011;16305;48.566;8.846;2022-12-29T01:37:48;4.43;;;2.10;;
29294;SDS011;16305;48.566;8.846;2022-12-29T01:40:14;4.23;;;2.00;;
29294;SDS011;16305;48.566;8.846;2022-12-29T01:42:39;2.97;;;2.00;;
29294;SDS011;16305;48.566;8.846;2022-12-29T01:45:11;2.17;;;1.67;;
29294;SDS011;16305;48.566;8.846;2022-12-29T01:47:39;2.63;;;1.57;;
29294;SDS011;16305;48.566;8.846;2022-12-29T01:50:14;2.27;;;1.60;;
29294;SDS011;16305;48.566;8.846;2022-12-29T01:53:00;4.83;;;1.93;;
29294;SDS011;16305;48.566;8.846;2022-12-29T01:55:30;3.50;;;1.60;;
29294;SDS011;16305;48.566;8.846;2022-12-29T01:58:02;2.20;;;1.43;;
29294;SDS011;16305;48.566;8.846;2022-12-29T02:00:29;3.10;;;1.73;;
29294;SDS011;16305;48.566;8.846;2022-12-29T02:02:55;2.90;;;1.60;;
29294;SDS011;16305;48.566;8.846;2022-12-29T02:05:23;2.70;;;1.70;;
29294;SDS011;16305;48.566;8.846;2022-12-29T02:07:53;2.80;;;1.63;;
29294;SDS011;16305;48.566;8.846;2022-12-29T02:10:20;3.73;;;1.80;;
29294;SDS011;16305;48.566;8.846;2022-12-29T02:12:47;2.73;;;1.70;;
29294;SDS011;16305;48.566;8.846;2022-12-29T02:15:13;4.10;;;1.57;;
29294;SDS011;16305;48.566;8.846;2022-12-29T02:17:41;2.20;;;1.63;;
29294;SDS011;16305;48.566;8.846;2022-12-29T02:20:41;3.10;;;1.50;;
29294;SDS011;16305;48.566;8.846;2022-12-29T02:37:04;4.30;;;1.40;;
29294;SDS011;16305;48.566;8.846;2022-12-29T02:39:44;7.03;;;1.30;;
29294;SDS011;16305;48.566;8.846;2022-12-29T02:45:16;2.57;;;1.10;;
29294;SDS011;16305;48.566;8.846;2022-12-29T02:48:24;2.20;;;0.83;;
29294;SDS011;16305;48.566;8.846;2022-12-29T02:50:59;2.30;;;1.10;;
29294;SDS011;16305;48.566;8.846;2022-12-29T02:53:32;2.80;;;1.10;;
29294;SDS011;16305;48.566;8.846;2022-12-29T02:56:17;3.40;;;1.10;;
29294;SDS011;16305;48.566;8.846;2022-12-29T02:58:43;1.50;;;0.93;;
29294;SDS011;16305;48.566;8.846;2022-12-29T03:01:14;2.37;;;1.10;;
29294;SDS011;16305;48.566;8.846;2022-12-29T03:12:14;2.50;;;1.20;;
29294;SDS011;16305;48.566;8.846;2022-12-29T03:20:35;2.93;;;1.00;;
29294;SDS011;16305;48.566;8.846;2022-12-29T03:23:08;2.30;;;1.03;;
29294;SDS011;16305;48.566;8.846;2022-12-29T03:25:36;5.17;;;1.13;;
29294;SDS011;16305;48.566;8.846;2022-12-29T03:28:06;2.53;;;1.20;;
29294;SDS011;16305;48.566;8.846;2022-12-29T03:30:35;1.63;;;1.10;;
29294;SDS011;16305;48.566;8.846;2022-12-29T03:33:03;2.20;;;1.00;;
29294;SDS011;16305;48.566;8.846;2022-12-29T03:35:33;2.23;;;1.30;;
29294;SDS011;16305;48.566;8.846;2022-12-29T03:40:30;2.50;;;1.23;;
29294;SDS011;16305;48.566;8.846;2022-12-29T03:42:59;2.83;;;1.30;;
29294;SDS011;16305;48.566;8.846;2022-12-29T03:45:24;4.40;;;1.30;;
29294;SDS011;16305;48.566;8.846;2022-12-29T03:47:51;6.43;;;1.40;;
29294;SDS011;16305;48.566;8.846;2022-12-29T03:50:17;5.20;;;1.43;;
29294;SDS011;16305;48.566;8.846;2022-12-29T03:52:43;3.53;;;1.40;;
29294;SDS011;16305;48.566;8.846;2022-12-29T03:55:08;2.43;;;1.30;;
29294;SDS011;16305;48.566;8.846;2022-12-29T03:57:34;2.03;;;1.47;;
29294;SDS011;16305;48.566;8.846;2022-12-29T04:00:00;2.57;;;1.50;;
29294;SDS011;16305;48.566;8.846;2022-12-29T04:02:26;2.43;;;1.50;;
29294;SDS011;16305;48.566;8.846;2022-12-29T04:04:51;2.37;;;1.50;;
29294;SDS011;16305;48.566;8.846;2022-12-29T04:07:17;2.37;;;1.40;;
29294;SDS011;16305;48.566;8.846;2022-12-29T04:09:42;1.90;;;1.53;;
29294;SDS011;16305;48.566;8.846;2022-12-29T04:12:08;2.50;;;1.40;;
29294;SDS011;16305;48.566;8.846;2022-12-29T04:14:33;2.53;;;1.40;;
29294;SDS011;16305;48.566;8.846;2022-12-29T04:16:59;1.63;;;1.33;;
29294;SDS011;16305;48.566;8.846;2022-12-29T04:19:24;3.87;;;1.43;;
29294;SDS011;16305;48.566;8.846;2022-12-29T04:21:50;3.67;;;1.70;;
29294;SDS011;16305;48.566;8.846;2022-12-29T04:24:15;4.20;;;1.50;;
29294;SDS011;16305;48.566;8.846;2022-12-29T04:26:41;2.73;;;1.60;;
29294;SDS011;16305;48.566;8.846;2022-12-29T04:29:07;2.33;;;1.60;;
29294;SDS011;16305;48.566;8.846;2022-12-29T04:31:32;2.13;;;1.50;;
29294;SDS011;16305;48.566;8.846;2022-12-29T04:33:58;3.53;;;1.60;;
29294;SDS011;16305;48.566;8.846;2022-12-29T04:36:24;2.03;;;1.20;;
29294;SDS011;16305;48.566;8.846;2022-12-29T04:38:50;2.70;;;2.07;;
29294;SDS011;16305;48.566;8.846;2022-12-29T04:41:16;3.60;;;1.60;;
29294;SDS011;16305;48.566;8.846;2022-12-29T04:43:41;1.77;;;1.30;;
29294;SDS011;16305;48.566;8.846;2022-12-29T04:46:07;2.33;;;2.13;;
29294;SDS011;16305;48.566;8.846;2022-12-29T04:48:32;3.27;;;1.60;;
29294;SDS011;16305;48.566;8.846;2022-12-29T04:50:57;2.80;;;1.60;;
29294;SDS011;16305;48.566;8.846;2022-12-29T04:53:23;1.70;;;1.20;;
29294;SDS011;16305;48.566;8.846;2022-12-29T04:55:49;1.27;;;1.17;;
29294;SDS011;16305;48.566;8.846;2022-12-29T04:58:16;2.10;;;1.53;;
29294;SDS011;16305;48.566;8.846;2022-12-29T05:00:42;1.90;;;1.53;;
29294;SDS011;16305;48.566;8.846;2022-12-29T05:03:08;2.43;;;1.30;;
29294;SDS011;16305;48.566;8.846;2022-12-29T05:05:33;1.70;;;1.40;;
29294;SDS011;16305;48.566;8.846;2022-12-29T05:07:59;2.23;;;1.33;;
29294;SDS011;16305;48.566;8.846;2022-12-29T05:10:24;5.20;;;1.57;;
29294;SDS011;16305;48.566;8.846;2022-12-29T05:12:50;2.00;;;1.10;;
29294;SDS011;16305;48.566;8.846;2022-12-29T05:15:16;1.90;;;1.23;;
29294;SDS011;16305;48.566;8.846;2022-12-29T05:17:41;6.17;;;1.53;;
29294;SDS011;16305;48.566;8.846;2022-12-29T05:20:07;1.33;;;1.20;;
29294;SDS011;16305;48.566;8.846;2022-12-29T05:22:33;1.80;;;1.13;;
29294;SDS011;16305;48.566;8.846;2022-12-29T05:24:59;3.10;;;1.57;;
29294;SDS011;16305;48.566;8.846;2022-12-29T05:27:24;2.83;;;1.33;;
29294;SDS011;16305;48.566;8.846;2022-12-29T05:29:50;3.37;;;1.50;;
29294;SDS011;16305;48.566;8.846;2022-12-29T05:32:15;3.23;;;1.30;;
29294;SDS011;16305;48.566;8.846;2022-12-29T05:34:41;2.97;;;1.53;;
29294;SDS011;16305;48.566;8.846;2022-12-29T05:37:06;5.20;;;1.73;;
29294;SDS011;16305;48.566;8.846;2022-12-29T05:39:32;1.97;;;1.30;;
29294;SDS011;16305;48.566;8.846;2022-12-29T05:41:57;2.10;;;1.50;;
29294;SDS011;16305;48.566;8.846;2022-12-29T05:44:23;4.77;;;1.20;;
29294;SDS011;16305;48.566;8.846;2022-12-29T05:46:49;1.93;;;1.43;;
29294;SDS011;16305;48.566;8.846;2022-12-29T05:49:15;1.53;;;1.20;;
29294;SDS011;16305;48.566;8.846;2022-12-29T05:51:41;1.80;;;1.40;;
29294;SDS011;16305;48.566;8.846;2022-12-29T05:54:06;4.70;;;1.53;;
29294;SDS011;16305;48.566;8.846;2022-12-29T05:56:32;1.70;;;1.30;;
29294;SDS011;16305;48.566;8.846;2022-12-29T05:58:57;4.73;;;1.17;;
29294;SDS011;16305;48.566;8.846;2022-12-29T06:01:23;2.80;;;1.40;;
29294;SDS011;16305;48.566;8.846;2022-12-29T06:03:49;1.83;;;1.33;;
29294;SDS011;16305;48.566;8.846;2022-12-29T06:06:14;2.73;;;1.40;;
29294;SDS011;16305;48.566;8.846;2022-12-29T06:08:40;3.70;;;1.47;;
29294;SDS011;16305;48.566;8.846;2022-12-29T06:11:06;2.23;;;1.50;;
29294;SDS011;16305;48.566;8.846;2022-12-29T06:13:32;1.77;;;1.60;;
29294;SDS011;16305;48.566;8.846;2022-12-29T06:15:57;4.33;;;1.77;;
29294;SDS011;16305;48.566;8.846;2022-12-29T06:18:23;2.37;;;1.37;;
29294;SDS011;16305;48.566;8.846;2022-12-29T06:20:48;2.17;;;1.80;;
29294;SDS011;16305;48.566;8.846;2022-12-29T06:23:14;3.20;;;2.07;;
29294;SDS011;16305;48.566;8.846;2022-12-29T06:25:41;3.23;;;1.60;;
29294;SDS011;16305;48.566;8.846;2022-12-29T06:28:06;2.93;;;1.60;;
29294;SDS011;16305;48.566;8.846;2022-12-29T06:30:32;2.47;;;1.63;;
29294;SDS011;16305;48.566;8.846;2022-12-29T06:32:58;2.90;;;1.50;;
29294;SDS011;16305;48.566;8.846;2022-12-29T06:35:24;2.27;;;1.27;;
29294;SDS011;16305;48.566;8.846;2022-12-29T06:37:50;1.57;;;1.33;;
29294;SDS011;16305;48.566;8.846;2022-12-29T06:40:15;2.33;;;1.80;;
29294;SDS011;16305;48.566;8.846;2022-12-29T06:42:41;5.97;;;1.80;;
29294;SDS011;16305;48.566;8.846;2022-12-29T06:45:07;2.67;;;1.50;;
29294;SDS011;16305;48.566;8.846;2022-12-29T06:47:33;2.00;;;1.70;;
29294;SDS011;16305;48.566;8.846;2022-12-29T06:49:59;4.37;;;1.50;;
29294;SDS011;16305;48.566;8.846;2022-12-29T06:52:25;4.80;;;1.67;;
29294;SDS011;16305;48.566;8.846;2022-12-29T06:54:51;2.93;;;2.00;;
29294;SDS011;16305;48.566;8.846;2022-12-29T06:57:16;3.83;;;1.60;;
29294;SDS011;16305;48.566;8.846;2022-12-29T06:59:42;2.43;;;1.50;;
29294;SDS011;16305;48.566;8.846;2022-12-29T07:02:09;4.23;;;1.40;;
29294;SDS011;16305;48.566;8.846;2022-12-29T07:04:35;3.97;;;1.57;;
29294;SDS011;16305;48.566;8.846;2022-12-29T07:07:01;4.63;;;1.70;;
29294;SDS011;16305;48.566;8.846;2022-12-29T07:09:27;1.50;;;1.30;;
29294;SDS011;16305;48.566;8.846;2022-12-29T07:11:52;2.73;;;2.03;;
29294;SDS011;16305;48.566;8.846;2022-12-29T07:14:18;3.07;;;2.37;;
29294;SDS011;16305;48.566;8.846;2022-12-29T07:16:43;5.70;;;2.03;;
29294;SDS011;16305;48.566;8.846;2022-12-29T07:19:09;2.47;;;1.50;;
29294;SDS011;16305;48.566;8.846;2022-12-29T07:21:35;3.63;;;1.97;;
29294;SDS011;16305;48.566;8.846;2022-12-29T07:24:00;4.50;;;1.90;;
29294;SDS011;16305;48.566;8.846;2022-12-29T07:26:26;3.30;;;1.67;;
29294;SDS011;16305;48.566;8.846;2022-12-29T07:28:52;2.70;;;1.43;;
29294;SDS011;16305;48.566;8.846;2022-12-29T07:31:18;2.37;;;1.60;;
29294;SDS011;16305;48.566;8.846;2022-12-29T07:33:45;3.70;;;2.00;;
29294;SDS011;16305;48.566;8.846;2022-12-29T07:36:12;3.77;;;1.40;;
29294;SDS011;16305;48.566;8.846;2022-12-29T07:38:38;2.97;;;2.00;;
29294;SDS011;16305;48.566;8.846;2022-12-29T07:41:04;1.77;;;1.47;;
29294;SDS011;16305;48.566;8.846;2022-12-29T07:43:29;5.20;;;1.63;;
29294;SDS011;16305;48.566;8.846;2022-12-29T07:45:55;1.57;;;1.30;;
29294;SDS011;16305;48.566;8.846;2022-12-29T07:48:21;2.80;;;1.70;;
29294;SDS011;16305;48.566;8.846;2022-12-29T07:50:46;3.70;;;1.60;;
29294;SDS011;16305;48.566;8.846;2022-12-29T07:53:12;3.60;;;2.40;;
29294;SDS011;16305;48.566;8.846;2022-12-29T07:55:38;2.50;;;1.70;;
29294;SDS011;16305;48.566;8.846;2022-12-29T07:58:03;6.33;;;2.10;;
29294;SDS011;16305;48.566;8.846;2022-12-29T08:00:29;6.53;;;2.07;;
29294;SDS011;16305;48.566;8.846;2022-12-29T08:02:54;2.93;;;2.00;;
29294;SDS011;16305;48.566;8.846;2022-12-29T08:05:20;4.30;;;2.10;;
29294;SDS011;16305;48.566;8.846;2022-12-29T08:07:46;3.63;;;2.27;;
29294;SDS011;16305;48.566;8.846;2022-12-29T08:10:12;4.53;;;3.27;;
29294;SDS011;16305;48.566;8.846;2022-12-29T08:12:38;7.23;;;3.47;;
29294;SDS011;16305;48.566;8.846;2022-12-29T08:15:05;9.17;;;5.30;;
29294;SDS011;16305;48.566;8.846;2022-12-29T08:17:31;9.33;;;5.80;;
29294;SDS011;16305;48.566;8.846;2022-12-29T08:19:57;5.00;;;2.43;;
29294;SDS011;16305;48.566;8.846;2022-12-29T08:22:23;4.67;;;2.57;;
29294;SDS011;16305;48.566;8.846;2022-12-29T08:24:48;3.57;;;1.60;;
29294;SDS011;16305;48.566;8.846;2022-12-29T08:27:14;3.07;;;1.70;;
29294;SDS011;16305;48.566;8.846;2022-12-29T08:29:40;4.03;;;2.43;;
29294;SDS011;16305;48.566;8.846;2022-12-29T08:32:06;2.93;;;1.50;;
29294;SDS011;16305;48.566;8.846;2022-12-29T08:34:31;2.10;;;1.50;;
29294;SDS011;16305;48.566;8.846;2022-12-29T08:36:57;1.57;;;1.47;;
29294;SDS011;16305;48.566;8.846;2022-12-29T08:39:23;2.23;;;1.40;;
29294;SDS011;16305;48.566;8.846;2022-12-29T08:41:48;2.80;;;1.57;;
29294;SDS011;16305;48.566;8.846;2022-12-29T08:44:14;1.50;;;1.30;;
29294;SDS011;16305;48.566;8.846;2022-12-29T08:46:39;2.00;;;1.30;;
29294;SDS011;16305;48.566;8.846;2022-12-29T08:49:05;3.57;;;1.27;;
29294;SDS011;16305;48.566;8.846;2022-12-29T08:51:31;4.37;;;1.30;;
29294;SDS011;16305;48.566;8.846;2022-12-29T08:53:56;2.07;;;1.30;;
29294;SDS011;16305;48.566;8.846;2022-12-29T08:56:22;1.43;;;1.17;;
29294;SDS011;16305;48.566;8.846;2022-12-29T08:58:48;2.00;;;1.27;;
29294;SDS011;16305;48.566;8.846;2022-12-29T09:01:14;5.00;;;1.40;;
29294;SDS011;16305;48.566;8.846;2022-12-29T09:03:40;2.67;;;1.37;;
29294;SDS011;16305;48.566;8.846;2022-12-29T09:06:05;2.80;;;1.73;;
29294;SDS011;16305;48.566;8.846;2022-12-29T09:08:31;5.77;;;1.90;;
29294;SDS011;16305;48.566;8.846;2022-12-29T09:11:05;2.00;;;1.40;;
29294;SDS011;16305;48.566;8.846;2022-12-29T09:13:35;3.27;;;1.17;;
29294;SDS011;16305;48.566;8.846;2022-12-29T09:16:00;3.10;;;1.23;;
29294;SDS011;16305;48.566;8.846;2022-12-29T09:18:26;4.90;;;1.70;;
29294;SDS011;16305;48.566;8.846;2022-12-29T09:20:55;1.77;;;1.20;;
29294;SDS011;16305;48.566;8.846;2022-12-29T09:23:24;2.80;;;1.23;;
29294;SDS011;16305;48.566;8.846;2022-12-29T09:25:50;1.20;;;1.10;;
29294;SDS011;16305;48.566;8.846;2022-12-29T09:28:17;2.63;;;1.30;;
29294;SDS011;16305;48.566;8.846;2022-12-29T09:30:42;2.10;;;1.30;;
29294;SDS011;16305;48.566;8.846;2022-12-29T09:33:08;1.63;;;1.20;;
29294;SDS011;16305;48.566;8.846;2022-12-29T09:35:33;3.30;;;1.10;;
29294;SDS011;16305;48.566;8.846;2022-12-29T09:37:59;2.10;;;1.40;;
29294;SDS011;16305;48.566;8.846;2022-12-29T09:40:26;6.03;;;1.37;;
29294;SDS011;16305;48.566;8.846;2022-12-29T09:42:59;4.83;;;1.50;;
29294;SDS011;16305;48.566;8.846;2022-12-29T09:45:36;4.33;;;1.33;;
29294;SDS011;16305;48.566;8.846;2022-12-29T09:48:08;3.07;;;1.23;;
29294;SDS011;16305;48.566;8.846;2022-12-29T09:50:48;4.00;;;1.20;;
29294;SDS011;16305;48.566;8.846;2022-12-29T09:53:29;2.33;;;1.57;;
29294;SDS011;16305;48.566;8.846;2022-12-29T09:56:03;3.37;;;1.20;;
29294;SDS011;16305;48.566;8.846;2022-12-29T09:58:47;2.90;;;1.37;;
29294;SDS011;16305;48.566;8.846;2022-12-29T10:04:25;2.60;;;1.70;;
29294;SDS011;16305;48.566;8.846;2022-12-29T10:07:03;3.50;;;1.53;;
29294;SDS011;16305;48.566;8.846;2022-12-29T10:10:09;3.33;;;1.53;;
29294;SDS011;16305;48.566;8.846;2022-12-29T10:12:52;3.70;;;1.73;;
29294;SDS011;16305;48.566;8.846;2022-12-29T10:23:53;4.57;;;1.60;;
29294;SDS011;16305;48.566;8.846;2022-12-29T10:26:20;2.23;;;1.63;;
29294;SDS011;16305;48.566;8.846;2022-12-29T10:29:32;3.53;;;1.50;;
29294;SDS011;16305;48.566;8.846;2022-12-29T10:31:44;6.30;;;3.37;;
29294;SDS011;16305;48.566;8.846;2022-12-29T10:34:23;1.90;;;1.47;;
29294;SDS011;16305;48.566;8.846;2022-12-29T10:37:05;3.80;;;2.17;;
29294;SDS011;16305;48.566;8.846;2022-12-29T10:39:43;5.03;;;2.40;;
29294;SDS011;16305;48.566;8.846;2022-12-29T10:42:28;5.77;;;2.13;;
29294;SDS011;16305;48.566;8.846;2022-12-29T10:45:01;3.37;;;1.90;;
29294;SDS011;16305;48.566;8.846;2022-12-29T10:47:29;3.63;;;1.87;;
29294;SDS011;16305;48.566;8.846;2022-12-29T10:50:00;2.77;;;1.70;;
29294;SDS011;16305;48.566;8.846;2022-12-29T10:52:27;2.57;;;1.60;;
29294;SDS011;16305;48.566;8.846;2022-12-29T10:54:54;3.63;;;2.00;;
29294;SDS011;16305;48.566;8.846;2022-12-29T10:57:37;3.93;;;1.53;;
29294;SDS011;16305;48.566;8.846;2022-12-29T11:00:12;2.80;;;1.53;;
29294;SDS011;16305;48.566;8.846;2022-12-29T11:08:02;4.33;;;1.73;;
29294;SDS011;16305;48.566;8.846;2022-12-29T11:13:32;3.67;;;2.00;;
29294;SDS011;16305;48.566;8.846;2022-12-29T11:15:51;2.03;;;1.53;;
29294;SDS011;16305;48.566;8.846;2022-12-29T11:20:46;2.90;;;1.63;;
29294;SDS011;16305;48.566;8.846;2022-12-29T11:26:13;2.23;;;1.30;;
29294;SDS011;16305;48.566;8.846;2022-12-29T11:28:45;2.77;;;1.57;;
29294;SDS011;16305;48.566;8.846;2022-12-29T11:31:16;2.43;;;1.33;;
29294;SDS011;16305;48.566;8.846;2022-12-29T11:33:42;2.43;;;1.10;;
29294;SDS011;16305;48.566;8.846;2022-12-29T11:38:40;2.67;;;1.90;;
29294;SDS011;16305;48.566;8.846;2022-12-29T11:41:21;3.17;;;1.90;;
29294;SDS011;16305;48.566;8.846;2022-12-29T11:43:52;2.27;;;1.40;;
29294;SDS011;16305;48.566;8.846;2022-12-29T11:46:27;1.67;;;1.50;;
29294;SDS011;16305;48.566;8.846;2022-12-29T11:48:59;1.83;;;1.53;;
29294;SDS011;16305;48.566;8.846;2022-12-29T11:51:44;2.00;;;1.60;;
29294;SDS011;16305;48.566;8.846;2022-12-29T11:54:17;4.60;;;2.20;;
29294;SDS011;16305;48.566;8.846;2022-12-29T11:56:55;2.50;;;2.17;;
29294;SDS011;16305;48.566;8.846;2022-12-29T12:01:56;3.40;;;2.23;;
29294;SDS011;16305;48.566;8.846;2022-12-29T12:04:24;3.10;;;1.83;;
29294;SDS011;16305;48.566;8.846;2022-12-29T12:06:59;3.73;;;2.20;;
29294;SDS011;16305;48.566;8.846;2022-12-29T12:09:50;3.40;;;1.87;;
29294;SDS011;16305;48.566;8.846;2022-12-29T12:15:09;5.20;;;2.23;;
29294;SDS011;16305;48.566;8.846;2022-12-29T12:17:53;4.43;;;1.97;;
29294;SDS011;16305;48.566;8.846;2022-12-29T12:20:38;3.40;;;2.07;;
29294;SDS011;16305;48.566;8.846;2022-12-29T12:25:57;4.87;;;2.50;;
29294;SDS011;16305;48.566;8.846;2022-12-29T12:34:20;2.47;;;1.83;;
29294;SDS011;16305;48.566;8.846;2022-12-29T12:42:23;3.37;;;2.60;;
29294;SDS011;16305;48.566;8.846;2022-12-29T12:48:18;3.77;;;2.50;;
29294;SDS011;16305;48.566;8.846;2022-12-29T12:50:56;2.87;;;2.30;;
29294;SDS011;16305;48.566;8.846;2022-12-29T12:56:18;2.93;;;2.10;;
29294;SDS011;16305;48.566;8.846;2022-12-29T13:01:51;2.80;;;1.83;;
29294;SDS011;16305;48.566;8.846;2022-12-29T13:12:41;3.33;;;2.30;;
29294;SDS011;16305;48.566;8.846;2022-12-29T13:18:27;3.03;;;2.17;;
29294;SDS011;16305;48.566;8.846;2022-12-29T13:30:03;4.83;;;2.40;;
29294;SDS011;16305;48.566;8.846;2022-12-29T13:35:48;4.93;;;2.57;;
29294;SDS011;16305;48.566;8.846;2022-12-29T13:40:52;4.13;;;2.20;;
29294;SDS011;16305;48.566;8.846;2022-12-29T13:43:26;2.33;;;2.13;;
29294;SDS011;16305;48.566;8.846;2022-12-29T13:48:59;4.27;;;2.37;;
29294;SDS011;16305;48.566;8.846;2022-12-29T13:51:29;4.10;;;2.00;;
29294;SDS011;16305;48.566;8.846;2022-12-29T14:02:09;2.23;;;2.00;;
29294;SDS011;16305;48.566;8.846;2022-12-29T14:04:41;2.40;;;1.63;;
29294;SDS011;16305;48.566;8.846;2022-12-29T14:07:27;5.53;;;2.50;;
29294;SDS011;16305;48.566;8.846;2022-12-29T14:09:55;3.70;;;1.90;;
29294;SDS011;16305;48.566;8.846;2022-12-29T14:12:27;3.00;;;2.00;;
29294;SDS011;16305;48.566;8.846;2022-12-29T14:15:03;2.13;;;1.63;;
29294;SDS011;16305;48.566;8.846;2022-12-29T14:17:35;5.73;;;1.93;;
29294;SDS011;16305;48.566;8.846;2022-12-29T14:20:02;3.03;;;2.30;;
29294;SDS011;16305;48.566;8.846;2022-12-29T14:22:32;3.03;;;2.17;;
29294;SDS011;16305;48.566;8.846;2022-12-29T14:24:58;3.10;;;2.10;;
29294;SDS011;16305;48.566;8.846;2022-12-29T14:29:52;4.87;;;1.80;;
29294;SDS011;16305;48.566;8.846;2022-12-29T14:34:50;2.60;;;2.10;;
29294;SDS011;16305;48.566;8.846;2022-12-29T14:40:06;4.33;;;2.23;;
29294;SDS011;16305;48.566;8.846;2022-12-29T14:42:38;3.63;;;2.37;;
29294;SDS011;16305;48.566;8.846;2022-12-29T14:45:06;2.63;;;1.93;;
29294;SDS011;16305;48.566;8.846;2022-12-29T14:47:52;3.73;;;2.60;;
29294;SDS011;16305;48.566;8.846;2022-12-29T14:50:39;4.27;;;2.13;;
29294;SDS011;16305;48.566;8.846;2022-12-29T14:56:27;3.57;;;1.87;;
29294;SDS011;16305;48.566;8.846;2022-12-29T14:58:57;3.17;;;2.20;;
29294;SDS011;16305;48.566;8.846;2022-12-29T15:01:39;4.50;;;2.40;;
29294;SDS011;16305;48.566;8.846;2022-12-29T15:04:52;5.03;;;3.57;;
29294;SDS011;16305;48.566;8.846;2022-12-29T15:07:00;6.83;;;2.60;;
29294;SDS011;16305;48.566;8.846;2022-12-29T15:09:33;5.37;;;2.30;;
29294;SDS011;16305;48.566;8.846;2022-12-29T15:12:11;5.73;;;2.40;;
29294;SDS011;16305;48.566;8.846;2022-12-29T15:14:59;3.63;;;2.30;;
29294;SDS011;16305;48.566;8.846;2022-12-29T15:17:32;3.17;;;2.10;;
29294;SDS011;16305;48.566;8.846;2022-12-29T15:20:00;3.47;;;2.10;;
29294;SDS011;16305;48.566;8.846;2022-12-29T15:22:41;3.10;;;2.20;;
29294;SDS011;16305;48.566;8.846;2022-12-29T15:25:13;7.20;;;3.10;;
29294;SDS011;16305;48.566;8.846;2022-12-29T15:27:41;7.07;;;3.20;;
29294;SDS011;16305;48.566;8.846;2022-12-29T15:30:11;6.43;;;3.03;;
29294;SDS011;16305;48.566;8.846;2022-12-29T15:32:50;3.77;;;2.17;;
29294;SDS011;16305;48.566;8.846;2022-12-29T15:38:12;3.23;;;2.30;;
29294;SDS011;16305;48.566;8.846;2022-12-29T15:40:40;2.37;;;1.87;;
29294;SDS011;16305;48.566;8.846;2022-12-29T15:45:42;3.30;;;1.90;;
29294;SDS011;16305;48.566;8.846;2022-12-29T15:48:26;5.83;;;3.00;;
29294;SDS011;16305;48.566;8.846;2022-12-29T15:50:52;4.67;;;2.60;;
29294;SDS011;16305;48.566;8.846;2022-12-29T15:53:19;6.80;;;2.47;;
29294;SDS011;16305;48.566;8.846;2022-12-29T15:55:57;5.93;;;2.90;;
29294;SDS011;16305;48.566;8.846;2022-12-29T15:58:26;4.87;;;3.03;;
29294;SDS011;16305;48.566;8.846;2022-12-29T16:01:02;4.67;;;2.10;;
29294;SDS011;16305;48.566;8.846;2022-12-29T16:03:29;4.33;;;2.40;;
29294;SDS011;16305;48.566;8.846;2022-12-29T16:06:08;9.53;;;3.77;;
29294;SDS011;16305;48.566;8.846;2022-12-29T16:08:37;4.63;;;3.43;;
29294;SDS011;16305;48.566;8.846;2022-12-29T16:11:16;5.37;;;3.07;;
29294;SDS011;16305;48.566;8.846;2022-12-29T16:13:47;4.33;;;2.90;;
29294;SDS011;16305;48.566;8.846;2022-12-29T16:16:16;5.97;;;2.60;;
29294;SDS011;16305;48.566;8.846;2022-12-29T16:18:45;6.23;;;4.37;;
29294;SDS011;16305;48.566;8.846;2022-12-29T16:21:22;3.67;;;2.90;;
29294;SDS011;16305;48.566;8.846;2022-12-29T16:23:54;3.07;;;2.70;;
29294;SDS011;16305;48.566;8.846;2022-12-29T16:26:22;3.27;;;2.50;;
29294;SDS011;16305;48.566;8.846;2022-12-29T16:28:54;4.43;;;2.30;;
29294;SDS011;16305;48.566;8.846;2022-12-29T16:34:43;7.53;;;2.83;;
29294;SDS011;16305;48.566;8.846;2022-12-29T16:36:54;3.63;;;2.13;;
29294;SDS011;16305;48.566;8.846;2022-12-29T16:39:33;3.73;;;2.73;;
29294;SDS011;16305;48.566;8.846;2022-12-29T16:45:00;6.70;;;3.70;;
29294;SDS011;16305;48.566;8.846;2022-12-29T16:47:42;5.30;;;3.33;;
29294;SDS011;16305;48.566;8.846;2022-12-29T16:50:12;6.80;;;4.13;;
29294;SDS011;16305;48.566;8.846;2022-12-29T16:52:48;8.27;;;3.90;;
29294;SDS011;16305;48.566;8.846;2022-12-29T16:55:18;5.10;;;4.10;;
29294;SDS011;16305;48.566;8.846;2022-12-29T16:57:44;9.20;;;5.43;;
29294;SDS011;16305;48.566;8.846;2022-12-29T17:00:26;9.37;;;5.20;;
29294;SDS011;16305;48.566;8.846;2022-12-29T17:02:54;7.50;;;5.10;;
29294;SDS011;16305;48.566;8.846;2022-12-29T17:05:22;9.87;;;6.00;;
29294;SDS011;16305;48.566;8.846;2022-12-29T17:07:48;8.33;;;5.30;;
29294;SDS011;16305;48.566;8.846;2022-12-29T17:10:15;11.57;;;6.83;;
29294;SDS011;16305;48.566;8.846;2022-12-29T17:12:42;6.37;;;5.33;;
29294;SDS011;16305;48.566;8.846;2022-12-29T17:15:25;8.50;;;5.30;;
29294;SDS011;16305;48.566;8.846;2022-12-29T17:17:54;6.97;;;4.60;;
29294;SDS011;16305;48.566;8.846;2022-12-29T17:20:24;6.50;;;3.80;;
29294;SDS011;16305;48.566;8.846;2022-12-29T17:22:52;5.63;;;3.20;;
29294;SDS011;16305;48.566;8.846;2022-12-29T17:25:22;5.27;;;3.40;;
29294;SDS011;16305;48.566;8.846;2022-12-29T17:27:56;6.77;;;3.43;;
29294;SDS011;16305;48.566;8.846;2022-12-29T17:30:25;5.00;;;3.30;;
29294;SDS011;16305;48.566;8.846;2022-12-29T17:32:52;6.37;;;3.53;;
29294;SDS011;16305;48.566;8.846;2022-12-29T17:35:22;5.67;;;3.90;;
29294;SDS011;16305;48.566;8.846;2022-12-29T17:37:48;6.60;;;4.00;;